Terminal Aerodrome Forecast
Issued by NWS Louisville, KY

Home | Current Version | Previous Version | Text Only | Print | Product List | Glossary On
Versions: 1 2 3 4 5 6 7 8 9 10 11 12 13 14 15 16
152
FTUS43 KLMK 191739
TAFBWG
TAF
KBWG 191739Z 1918/2018 20018G31KT P6SM SCT040 SCT080
     FM191900 20017G29KT P6SM SCT045
     FM192300 19012G20KT P6SM SCT080
     FM200300 19012KT P6SM BKN250 WS020/20045KT
     FM201200 19015G25KT P6SM SCT250
     FM201500 19017G29KT P6SM SCT045 SCT250=

USA.gov is the U.S. government's official web portal to all federal, state and local government web resources and services.